createdAt,value
2022-12-18T00:00:01.248Z,-4.96
2022-12-18T00:05:05.105Z,-4.90
2022-12-18T00:10:09.076Z,-4.84
2022-12-18T00:15:11.970Z,-4.90
2022-12-18T00:20:15.009Z,-4.91
2022-12-18T00:25:17.965Z,-4.81
2022-12-18T00:30:21.019Z,-4.65
2022-12-18T00:35:23.970Z,-4.66
2022-12-18T00:40:26.893Z,-4.75
2022-12-18T00:45:32.264Z,-4.56
2022-12-18T00:50:35.330Z,-4.40
2022-12-18T00:55:42.362Z,-4.37
2022-12-18T01:00:45.465Z,-4.42
2022-12-18T01:05:48.742Z,-4.37
2022-12-18T01:10:52.020Z,-4.41
2022-12-18T01:15:54.962Z,-4.52
2022-12-18T01:20:57.991Z,-4.47
2022-12-18T01:26:08.223Z,-4.30
2022-12-18T01:31:20.890Z,-4.22
2022-12-18T01:36:36.554Z,-4.18
2022-12-18T01:41:58.777Z,-4.29
2022-12-18T01:47:01.964Z,-4.38
2022-12-18T01:52:05.037Z,-4.47
2022-12-18T01:57:08.361Z,-4.41
2022-12-18T02:02:12.859Z,-4.41
2022-12-18T02:07:15.841Z,-4.29
2022-12-18T02:12:25.036Z,-4.24
2022-12-18T02:18:03.751Z,-4.24
2022-12-18T02:23:45.881Z,-4.07
2022-12-18T02:28:57.499Z,-3.96
2022-12-18T02:34:05.909Z,-4.02
2022-12-18T02:39:13.626Z,-4.09
2022-12-18T02:44:16.631Z,-4.16
2022-12-18T02:49:58.679Z,-4.27
2022-12-18T02:55:29.121Z,-4.47
2022-12-18T03:00:41.989Z,-4.69
2022-12-18T03:06:31.257Z,-4.99
2022-12-18T03:11:58.897Z,-5.25
2022-12-18T03:17:06.304Z,-5.32
2022-12-18T03:22:11.637Z,-5.43
2022-12-18T03:27:19.477Z,-5.55
2022-12-18T03:32:42.365Z,-5.47
2022-12-18T03:37:45.351Z,-5.41
2022-12-18T03:42:59.945Z,-5.26
2022-12-18T03:48:18.628Z,-5.18
2022-12-18T03:54:00.190Z,-5.10
2022-12-18T03:59:05.757Z,-5.09
2022-12-18T04:04:12.292Z,-5.03
2022-12-18T04:09:16.036Z,-4.96
2022-12-18T04:14:20.221Z,-4.93
2022-12-18T04:19:23.248Z,-4.88
2022-12-18T04:24:26.655Z,-5.01
2022-12-18T04:29:29.718Z,-5.12
2022-12-18T04:34:33.197Z,-5.24
2022-12-18T04:39:36.892Z,-5.24
2022-12-18T04:44:39.835Z,-5.14
2022-12-18T04:49:42.793Z,-5.00
2022-12-18T04:54:45.722Z,-4.95
2022-12-18T04:59:48.703Z,-4.95
2022-12-18T05:04:51.668Z,-4.88
2022-12-18T05:09:54.702Z,-4.75
2022-12-18T05:14:57.618Z,-4.53
2022-12-18T05:20:00.472Z,-4.34
2022-12-18T05:25:03.554Z,-4.19
2022-12-18T05:30:07.553Z,-4.16
2022-12-18T05:35:12.318Z,-4.21
2022-12-18T05:40:15.294Z,-4.13
2022-12-18T05:45:18.742Z,-4.02
2022-12-18T05:50:21.629Z,-3.86
2022-12-18T05:55:24.612Z,-3.71
2022-12-18T06:00:28.128Z,-3.61
2022-12-18T06:05:38.264Z,-3.52
2022-12-18T06:10:42.825Z,-3.45
2022-12-18T06:15:45.991Z,-3.38
2022-12-18T06:20:57.526Z,-3.30
2022-12-18T06:26:08.856Z,-3.26
2022-12-18T06:31:12.629Z,-3.19
2022-12-18T06:36:15.800Z,-3.11
2022-12-18T06:41:22.284Z,-3.12
2022-12-18T06:46:25.516Z,-3.05
2022-12-18T06:51:28.453Z,-3.00
2022-12-18T06:56:32.140Z,-2.94
2022-12-18T07:01:35.120Z,-2.88
2022-12-18T07:06:38.159Z,-2.97
2022-12-18T07:11:41.187Z,-3.16
2022-12-18T07:16:44.198Z,-3.17
2022-12-18T07:21:47.141Z,-3.10
2022-12-18T07:26:50.078Z,-3.02
2022-12-18T07:31:53.085Z,-2.83
2022-12-18T07:36:56.025Z,-2.86
2022-12-18T07:42:17.706Z,-2.87
2022-12-18T07:47:20.733Z,-2.79
2022-12-18T07:52:26.203Z,-2.64
2022-12-18T08:02:52.591Z,-2.37
2022-12-18T08:07:57.080Z,-2.19
2022-12-18T08:13:04.679Z,-2.04
2022-12-18T08:18:12.689Z,-2.07
2022-12-18T08:23:16.941Z,-2.36
2022-12-18T08:28:19.860Z,-2.61
2022-12-18T08:33:22.863Z,-2.62
2022-12-18T08:38:25.988Z,-2.61
2022-12-18T08:43:48.124Z,-2.60
2022-12-18T08:48:59.162Z,-2.47
2022-12-18T08:54:02.175Z,-2.34
2022-12-18T08:59:05.905Z,-2.38
2022-12-18T09:04:11.089Z,-2.40
2022-12-18T09:09:14.107Z,-2.33
2022-12-18T09:14:17.084Z,-2.36
2022-12-18T09:19:20.107Z,-2.21
2022-12-18T09:24:23.007Z,-1.90
2022-12-18T09:29:25.972Z,-1.65
2022-12-18T09:34:28.964Z,-1.51
2022-12-18T09:39:31.905Z,-1.56
2022-12-18T09:44:45.748Z,-1.63
2022-12-18T09:49:56.247Z,-1.64
2022-12-18T09:55:11.909Z,-1.70
2022-12-18T10:00:22.918Z,-1.58
2022-12-18T10:05:58.274Z,-1.23
2022-12-18T10:11:18.576Z,-0.62
2022-12-18T10:16:55.585Z,-0.50
2022-12-18T10:22:22.043Z,-0.87
2022-12-18T10:27:29.954Z,-1.32
2022-12-18T10:32:33.971Z,-1.42
2022-12-18T10:37:36.901Z,-1.52
2022-12-18T10:42:40.777Z,-1.72
2022-12-18T10:47:48.146Z,-1.75
2022-12-18T10:53:01.560Z,-1.62
2022-12-18T10:58:28.081Z,-1.46
2022-12-18T11:03:47.874Z,-1.46
2022-12-18T11:09:06.563Z,-1.73
2022-12-18T11:14:27.133Z,-1.79
2022-12-18T11:19:39.892Z,-1.88
2022-12-18T11:24:43.254Z,-1.92
2022-12-18T11:29:46.891Z,-1.96
2022-12-18T11:35:00.792Z,-2.02
2022-12-18T11:40:37.843Z,-2.01
2022-12-18T11:45:55.885Z,-1.90
2022-12-18T11:51:02.887Z,-1.82
2022-12-18T11:56:37.016Z,-1.80
2022-12-18T12:02:14.385Z,-1.75
2022-12-18T12:07:35.866Z,-1.89
2022-12-18T12:13:24.660Z,-2.03
2022-12-18T12:18:58.364Z,-2.07
2022-12-18T12:24:25.942Z,-2.23
2022-12-18T12:29:50.468Z,-2.43
2022-12-18T12:35:12.280Z,-2.52
2022-12-18T12:40:50.328Z,-2.64
2022-12-18T12:46:20.921Z,-2.78
2022-12-18T12:51:31.096Z,-2.87
2022-12-18T12:56:51.871Z,-2.96
2022-12-18T13:02:22.301Z,-3.05
2022-12-18T13:07:59.630Z,-3.07
2022-12-18T13:13:11.156Z,-3.13
2022-12-18T13:18:21.487Z,-3.19
2022-12-18T13:23:24.313Z,-3.27
2022-12-18T13:28:46.437Z,-3.32
2022-12-18T13:39:19.792Z,-3.51
2022-12-18T13:44:42.763Z,-3.67
2022-12-18T13:49:48.151Z,-3.81
2022-12-18T13:54:58.913Z,-3.87
2022-12-18T14:00:26.372Z,-3.88
2022-12-18T14:05:38.751Z,-3.90
2022-12-18T14:10:48.308Z,-4.07
2022-12-18T14:15:53.270Z,-4.35
2022-12-18T14:21:00.008Z,-4.61
2022-12-18T14:26:20.780Z,-4.66
2022-12-18T14:31:30.611Z,-4.62
2022-12-18T14:36:33.557Z,-4.56
2022-12-18T14:41:36.593Z,-4.55
2022-12-18T14:46:43.718Z,-4.50
2022-12-18T14:51:53.998Z,-4.52
2022-12-18T14:57:23.830Z,-4.50
2022-12-18T15:02:29.764Z,-4.43
2022-12-18T15:07:52.809Z,-4.37
2022-12-18T15:13:03.572Z,-4.28
2022-12-18T15:18:09.895Z,-4.19
2022-12-18T15:23:25.231Z,-4.07
2022-12-18T15:28:34.918Z,-3.98
2022-12-18T15:33:43.980Z,-4.07
2022-12-18T15:38:52.297Z,-4.06
2022-12-18T15:43:55.330Z,-4.05
2022-12-18T15:49:02.728Z,-4.09
2022-12-18T15:54:14.667Z,-4.18
2022-12-18T15:59:21.117Z,-4.17
2022-12-18T16:04:24.727Z,-4.16
2022-12-18T16:09:27.751Z,-4.13
2022-12-18T16:14:32.591Z,-4.14
2022-12-18T16:19:35.666Z,-4.10
2022-12-18T16:24:38.689Z,-4.12
2022-12-18T16:29:41.688Z,-4.12
2022-12-18T16:34:46.371Z,-4.11
2022-12-18T16:39:49.301Z,-4.14
2022-12-18T16:44:52.315Z,-4.13
2022-12-18T16:49:55.375Z,-4.04
2022-12-18T16:54:58.493Z,-4.01
2022-12-18T17:00:05.600Z,-4.03
2022-12-18T17:05:09.578Z,-3.93
2022-12-18T17:10:12.606Z,-3.91
2022-12-18T17:15:15.549Z,-4.02
2022-12-18T17:20:19.443Z,-4.19
2022-12-18T17:25:22.962Z,-4.28
2022-12-18T17:30:27.457Z,-4.34
2022-12-18T17:35:31.271Z,-4.36
2022-12-18T17:40:34.213Z,-4.38
2022-12-18T17:45:39.638Z,-4.42
2022-12-18T17:50:42.581Z,-4.51
2022-12-18T17:55:55.581Z,-4.49
2022-12-18T18:00:58.639Z,-4.43
2022-12-18T18:06:02.597Z,-4.35
2022-12-18T18:11:31.503Z,-4.33
2022-12-18T18:16:44.899Z,-4.20
2022-12-18T18:21:51.301Z,-4.10
2022-12-18T18:26:54.800Z,-4.07
2022-12-18T18:31:59.312Z,-4.04
2022-12-18T18:37:03.235Z,-4.09
2022-12-18T18:42:06.359Z,-4.29
2022-12-18T18:47:09.708Z,-4.53
2022-12-18T18:52:12.870Z,-4.74
2022-12-18T18:57:20.996Z,-4.91
2022-12-18T19:02:24.722Z,-5.04
2022-12-18T19:07:30.384Z,-5.18
2022-12-18T19:12:53.841Z,-5.31
2022-12-18T19:17:56.732Z,-5.52
2022-12-18T19:23:00.299Z,-5.74
2022-12-18T19:28:03.335Z,-5.88
2022-12-18T19:33:34.554Z,-5.97
2022-12-18T19:38:31.789Z,-5.98
2022-12-18T19:43:38.129Z,-6.13
2022-12-18T19:48:43.594Z,-6.22
2022-12-18T19:53:47.903Z,-6.30
2022-12-18T19:58:51.030Z,-6.35
2022-12-18T20:03:55.951Z,-6.39
2022-12-18T20:09:05.715Z,-6.51
2022-12-18T20:14:13.182Z,-6.62
2022-12-18T20:19:16.227Z,-6.69
2022-12-18T20:24:27.432Z,-6.81
2022-12-18T20:29:33.699Z,-6.83
2022-12-18T20:34:37.757Z,-6.78
2022-12-18T20:39:41.384Z,-6.60
2022-12-18T20:44:45.868Z,-6.34
2022-12-18T20:49:48.879Z,-6.20
2022-12-18T20:54:51.879Z,-6.14
2022-12-18T20:59:54.876Z,-6.27
2022-12-18T21:04:57.960Z,-6.28
2022-12-18T21:10:04.404Z,-6.13
2022-12-18T21:15:10.899Z,-6.30
2022-12-18T21:20:17.781Z,-6.39
2022-12-18T21:25:21.878Z,-6.40
2022-12-18T21:30:24.978Z,-6.45
2022-12-18T21:35:27.979Z,-6.52
2022-12-18T21:40:33.928Z,-6.65
2022-12-18T21:45:37.090Z,-6.84
2022-12-18T21:50:39.973Z,-7.01
2022-12-18T21:55:42.843Z,-7.08
2022-12-18T22:00:48.794Z,-6.97
2022-12-18T22:06:04.082Z,-7.04
2022-12-18T22:11:13.283Z,-7.14
2022-12-18T22:16:16.619Z,-6.96
2022-12-18T22:21:32.943Z,-6.80
2022-12-18T22:26:40.175Z,-6.82
2022-12-18T22:31:43.562Z,-6.77
2022-12-18T22:36:48.780Z,-6.88
2022-12-18T22:41:52.507Z,-7.08
2022-12-18T22:47:05.646Z,-7.31
2022-12-18T22:52:10.178Z,-7.33
2022-12-18T22:57:13.186Z,-7.38
2022-12-18T23:02:17.859Z,-7.49
2022-12-18T23:07:21.431Z,-7.55
2022-12-18T23:12:24.356Z,-7.54
2022-12-18T23:17:28.559Z,-7.61
2022-12-18T23:22:31.702Z,-7.70
2022-12-18T23:27:34.694Z,-7.64
2022-12-18T23:32:38.781Z,-7.67
2022-12-18T23:37:58.770Z,-7.66
2022-12-18T23:43:02.524Z,-7.60
2022-12-18T23:48:05.437Z,-7.49
2022-12-18T23:53:10.261Z,-7.31
2022-12-18T23:58:20.785Z,-7.04
